createdAt,value
2022-09-04T00:00:52.239Z,2.22
2022-09-04T00:03:39.123Z,2.88
2022-09-04T00:06:17.334Z,4.18
2022-09-04T00:08:58.483Z,2.00
2022-09-04T00:11:45.683Z,2.60
2022-09-04T00:14:20.843Z,1.33
2022-09-04T00:17:00.259Z,2.20
2022-09-04T00:19:38.083Z,3.20
2022-09-04T00:22:23.639Z,2.90
2022-09-04T00:25:05.608Z,2.38
2022-09-04T00:27:44.497Z,1.73
2022-09-04T00:30:20.109Z,1.43
2022-09-04T00:33:00.535Z,2.42
2022-09-04T00:35:38.218Z,2.03
2022-09-04T00:38:16.326Z,1.48
2022-09-04T00:41:06.763Z,1.92
2022-09-04T00:43:59.744Z,5.13
2022-09-04T00:46:54.594Z,3.00
2022-09-04T00:49:45.762Z,4.65
2022-09-04T00:52:36.639Z,2.13
2022-09-04T00:55:27.289Z,3.50
2022-09-04T00:58:27.060Z,2.70
2022-09-04T01:04:01.023Z,1.90
2022-09-04T01:06:41.401Z,1.85
2022-09-04T01:09:55.579Z,1.85
2022-09-04T01:12:37.453Z,1.27
2022-09-04T01:15:18.769Z,1.05
2022-09-04T01:18:01.998Z,1.58
2022-09-04T01:20:53.102Z,1.13
2022-09-04T01:23:41.673Z,2.28
2022-09-04T01:26:22.262Z,1.85
2022-09-04T01:29:09.555Z,1.40
2022-09-04T01:31:50.233Z,2.20
2022-09-04T01:34:42.069Z,1.65
2022-09-04T01:37:35.443Z,1.77
2022-09-04T01:40:23.443Z,1.92
2022-09-04T01:43:11.864Z,1.52
2022-09-04T01:46:18.335Z,1.67
2022-09-04T01:48:57.607Z,1.40
2022-09-04T01:51:38.595Z,2.92
2022-09-04T01:54:24.280Z,1.80
2022-09-04T01:57:15.040Z,2.67
2022-09-04T02:00:00.770Z,2.90
2022-09-04T02:02:43.723Z,1.52
2022-09-04T02:05:25.544Z,2.15
2022-09-04T02:10:41.660Z,1.83
2022-09-04T02:13:22.021Z,2.70
2022-09-04T02:16:07.527Z,1.90
2022-09-04T02:18:49.943Z,3.03
2022-09-04T02:21:31.274Z,1.33
2022-09-04T02:24:11.083Z,1.58
2022-09-04T02:26:52.043Z,1.27
2022-09-04T02:29:33.138Z,2.47
2022-09-04T02:32:12.995Z,2.25
2022-09-04T02:34:54.157Z,1.98
2022-09-04T02:37:33.540Z,1.70
2022-09-04T02:40:17.960Z,2.10
2022-09-04T02:43:05.903Z,1.52
2022-09-04T02:45:45.534Z,1.10
2022-09-04T02:48:24.660Z,2.40
2022-09-04T02:51:13.195Z,2.97
2022-09-04T02:53:57.595Z,2.13
2022-09-04T02:56:42.985Z,1.05
2022-09-04T02:59:28.271Z,1.23
2022-09-04T03:02:02.590Z,1.48
2022-09-04T03:04:45.145Z,1.73
2022-09-04T03:07:25.469Z,1.70
2022-09-04T03:10:06.770Z,1.77
2022-09-04T03:12:45.426Z,3.50
2022-09-04T03:15:26.983Z,1.95
2022-09-04T03:18:05.889Z,0.45
2022-09-04T03:20:44.632Z,1.87
2022-09-04T03:23:23.171Z,1.63
2022-09-04T03:26:19.564Z,0.73
2022-09-04T03:29:00.847Z,2.70
2022-09-04T03:31:40.394Z,2.47
2022-09-04T03:34:31.776Z,2.80
2022-09-04T03:37:15.727Z,1.05
2022-09-04T03:40:07.271Z,0.80
2022-09-04T03:42:54.370Z,2.38
2022-09-04T03:45:37.098Z,2.08
2022-09-04T03:48:26.044Z,2.70
2022-09-04T03:51:04.222Z,3.00
2022-09-04T03:53:42.786Z,1.42
2022-09-04T03:56:36.532Z,1.98
2022-09-04T03:59:20.870Z,2.45
2022-09-04T04:02:01.223Z,2.05
2022-09-04T04:04:59.575Z,1.55
2022-09-04T04:07:47.304Z,2.63
2022-09-04T04:10:32.846Z,2.75
2022-09-04T04:13:30.675Z,1.08
2022-09-04T04:16:24.615Z,0.85
2022-09-04T04:19:23.175Z,2.40
2022-09-04T04:22:11.292Z,2.75
2022-09-04T04:24:54.947Z,3.70
2022-09-04T04:27:41.806Z,2.65
2022-09-04T04:30:16.252Z,1.50
2022-09-04T04:33:13.781Z,1.98
2022-09-04T04:35:57.191Z,1.77
2022-09-04T04:38:53.533Z,2.03
2022-09-04T04:42:00.303Z,1.02
2022-09-04T04:45:28.734Z,1.55
2022-09-04T04:48:39.707Z,1.90
2022-09-04T04:51:23.715Z,1.52
2022-09-04T04:54:02.527Z,2.10
2022-09-04T04:56:45.355Z,2.20
2022-09-04T04:59:24.642Z,2.08
2022-09-04T05:02:07.604Z,2.67
2022-09-04T05:04:50.105Z,2.75
2022-09-04T05:07:33.958Z,2.85
2022-09-04T05:10:17.031Z,1.85
2022-09-04T05:13:01.943Z,1.60
2022-09-04T05:16:07.417Z,1.70
2022-09-04T05:18:46.433Z,4.55
2022-09-04T05:21:28.544Z,3.25
2022-09-04T05:24:09.302Z,2.92
2022-09-04T05:26:51.446Z,3.63
2022-09-04T05:29:32.416Z,1.45
2022-09-04T05:32:17.892Z,1.73
2022-09-04T05:35:04.021Z,3.83
2022-09-04T05:37:44.847Z,1.75
2022-09-04T05:40:27.507Z,3.72
2022-09-04T05:43:09.887Z,1.80
2022-09-04T05:45:53.071Z,2.50
2022-09-04T05:48:30.849Z,2.10
2022-09-04T05:51:26.049Z,1.52
2022-09-04T05:54:22.606Z,3.63
2022-09-04T05:57:15.421Z,2.08
2022-09-04T06:00:05.939Z,5.25
2022-09-04T06:03:23.034Z,3.10
2022-09-04T06:06:10.943Z,3.53
2022-09-04T06:09:25.756Z,4.22
2022-09-04T06:12:28.677Z,2.88
2022-09-04T06:15:13.712Z,3.60
2022-09-04T06:18:04.482Z,3.05
2022-09-04T06:21:09.366Z,3.92
2022-09-04T06:24:16.531Z,2.35
2022-09-04T06:27:08.708Z,4.00
2022-09-04T06:30:12.285Z,2.83
2022-09-04T06:33:05.489Z,2.78
2022-09-04T06:36:08.130Z,2.40
2022-09-04T06:38:54.640Z,3.15
2022-09-04T06:41:41.564Z,3.75
2022-09-04T06:44:32.167Z,4.32
2022-09-04T06:47:19.389Z,2.88
2022-09-04T06:50:14.838Z,3.72
2022-09-04T06:53:04.091Z,2.53
2022-09-04T06:58:42.418Z,4.05
2022-09-04T07:01:19.663Z,4.10
2022-09-04T07:04:06.115Z,3.92
2022-09-04T07:06:53.167Z,6.13
2022-09-04T07:09:30.543Z,3.45
2022-09-04T07:12:27.698Z,4.75
2022-09-04T07:15:39.596Z,3.58
2022-09-04T07:18:26.168Z,4.95
2022-09-04T07:21:11.566Z,4.20
2022-09-04T07:23:52.775Z,5.10
2022-09-04T07:26:37.211Z,5.00
2022-09-04T07:29:29.170Z,7.20
2022-09-04T07:32:07.568Z,7.95
2022-09-04T07:34:50.770Z,5.93
2022-09-04T07:37:33.346Z,4.47
2022-09-04T07:40:12.012Z,4.78
2022-09-04T07:42:50.815Z,7.18
2022-09-04T07:45:33.588Z,7.63
2022-09-04T07:48:18.150Z,5.47
2022-09-04T07:51:03.034Z,6.60
2022-09-04T07:53:59.370Z,5.82
2022-09-04T07:56:53.905Z,6.32
2022-09-04T07:59:53.766Z,4.95
2022-09-04T08:02:43.191Z,4.38
2022-09-04T08:05:37.346Z,6.88
2022-09-04T08:08:40.179Z,4.53
2022-09-04T08:11:34.409Z,6.18
2022-09-04T08:14:23.063Z,5.65
2022-09-04T08:17:25.664Z,3.72
2022-09-04T08:20:11.208Z,4.22
2022-09-04T08:22:52.872Z,6.22
2022-09-04T08:25:29.553Z,4.13
2022-09-04T08:28:20.885Z,5.50
2022-09-04T08:30:56.324Z,5.40
2022-09-04T08:34:14.890Z,6.75
2022-09-04T08:36:54.142Z,7.15
2022-09-04T08:39:36.001Z,3.47
2022-09-04T08:42:44.719Z,5.07
2022-09-04T08:45:48.092Z,7.55
2022-09-04T08:49:10.910Z,4.45
2022-09-04T08:52:18.310Z,4.63
2022-09-04T08:55:32.920Z,4.07
2022-09-04T08:58:29.126Z,5.80
2022-09-04T09:01:41.456Z,4.72
2022-09-04T09:04:48.080Z,5.00
2022-09-04T09:07:53.898Z,5.35
2022-09-04T09:10:37.090Z,4.18
2022-09-04T09:13:49.446Z,4.60
2022-09-04T09:16:29.485Z,8.85
2022-09-04T09:19:22.177Z,6.03
2022-09-04T09:22:10.157Z,4.75
2022-09-04T09:25:08.906Z,6.20
2022-09-04T09:28:37.727Z,6.10
2022-09-04T09:31:37.797Z,6.85
2022-09-04T09:34:38.918Z,7.00
2022-09-04T09:37:45.494Z,5.00
2022-09-04T09:40:55.267Z,11.00
2022-09-04T09:44:13.490Z,4.20
2022-09-04T09:47:11.323Z,5.28
2022-09-04T09:50:15.466Z,5.60
2022-09-04T09:53:29.267Z,5.38
2022-09-04T09:56:32.458Z,4.75
2022-09-04T09:59:40.885Z,4.55
2022-09-04T10:02:41.044Z,4.95
2022-09-04T10:05:39.921Z,6.68
2022-09-04T10:08:35.487Z,4.70
2022-09-04T10:11:28.493Z,4.15
2022-09-04T10:14:33.494Z,5.80
2022-09-04T10:18:06.855Z,6.60
2022-09-04T10:21:20.028Z,5.55
2022-09-04T10:24:34.859Z,4.55
2022-09-04T10:27:33.941Z,5.18
2022-09-04T10:33:11.283Z,4.90
2022-09-04T10:35:57.770Z,8.18
2022-09-04T10:39:01.090Z,5.25
2022-09-04T10:41:58.135Z,4.38
2022-09-04T10:44:43.951Z,3.55
2022-09-04T10:47:31.046Z,4.25
2022-09-04T10:50:31.122Z,4.22
2022-09-04T10:53:26.981Z,4.23
2022-09-04T10:56:19.142Z,4.22
2022-09-04T10:59:17.687Z,3.20
2022-09-04T11:02:32.411Z,3.35
2022-09-04T11:05:24.559Z,3.53
2022-09-04T11:08:25.767Z,4.95
2022-09-04T11:11:17.036Z,3.75
2022-09-04T11:14:14.915Z,2.92
2022-09-04T11:17:11.911Z,4.22
2022-09-04T11:20:16.073Z,2.80
2022-09-04T11:23:32.522Z,3.97
2022-09-04T11:26:37.342Z,3.53
2022-09-04T11:29:23.878Z,5.13
2022-09-04T11:32:25.096Z,2.88
2022-09-04T11:35:32.876Z,5.13
2022-09-04T11:38:16.728Z,4.50
2022-09-04T11:41:23.931Z,4.60
2022-09-04T11:44:28.419Z,3.70
2022-09-04T11:47:31.431Z,4.60
2022-09-04T11:50:24.691Z,3.10
2022-09-04T11:53:12.812Z,3.58
2022-09-04T11:56:20.446Z,3.03
2022-09-04T11:59:17.571Z,4.10
2022-09-04T12:02:31.325Z,3.15
2022-09-04T12:05:16.396Z,3.88
2022-09-04T12:08:08.882Z,3.42
2022-09-04T12:10:55.109Z,3.45
2022-09-04T12:13:54.634Z,3.00
2022-09-04T12:17:02.797Z,5.07
2022-09-04T12:20:06.099Z,3.10
2022-09-04T12:23:21.282Z,3.28
2022-09-04T12:26:22.007Z,4.75
2022-09-04T12:29:23.741Z,5.85
2022-09-04T12:32:24.662Z,4.32
2022-09-04T12:35:31.908Z,3.22
2022-09-04T12:38:25.859Z,3.97
2022-09-04T12:41:05.783Z,2.90
2022-09-04T12:43:54.365Z,3.60
2022-09-04T12:46:49.544Z,3.60
2022-09-04T12:49:43.523Z,4.45
2022-09-04T12:52:30.223Z,3.55
2022-09-04T12:55:14.003Z,3.10
2022-09-04T12:58:00.459Z,2.97
2022-09-04T13:00:48.674Z,3.40
2022-09-04T13:03:34.315Z,3.28
2022-09-04T13:06:20.377Z,3.20
2022-09-04T13:09:05.820Z,3.78
2022-09-04T13:11:55.541Z,3.13
2022-09-04T13:14:42.648Z,4.80
2022-09-04T13:17:25.226Z,4.13
2022-09-04T13:20:10.026Z,5.03
2022-09-04T13:22:54.697Z,4.20
2022-09-04T13:25:41.543Z,3.50
2022-09-04T13:28:24.186Z,3.55
2022-09-04T13:31:08.592Z,4.05
2022-09-04T13:33:50.575Z,6.13
2022-09-04T13:36:31.532Z,3.80
2022-09-04T13:39:31.915Z,4.75
2022-09-04T13:42:32.509Z,3.28
2022-09-04T13:45:11.967Z,3.03
2022-09-04T13:47:49.519Z,4.63
2022-09-04T13:50:27.054Z,3.92
2022-09-04T13:53:10.418Z,4.68
2022-09-04T13:55:50.115Z,4.43
2022-09-04T13:58:29.697Z,5.35
2022-09-04T14:01:09.168Z,3.17
2022-09-04T14:03:45.951Z,3.65
2022-09-04T14:06:21.967Z,2.35
2022-09-04T14:09:04.250Z,3.70
2022-09-04T14:11:57.410Z,2.25
2022-09-04T14:14:58.962Z,2.13
2022-09-04T14:17:42.150Z,4.63
2022-09-04T14:20:21.801Z,2.17
2022-09-04T14:23:05.873Z,1.55
2022-09-04T14:25:50.260Z,3.10
2022-09-04T14:28:34.176Z,2.33
2022-09-04T14:31:15.585Z,3.45
2022-09-04T14:34:03.161Z,3.38
2022-09-04T14:36:55.735Z,2.30
2022-09-04T14:39:36.246Z,2.15
2022-09-04T14:42:26.620Z,2.97
2022-09-04T14:45:14.753Z,2.33
2022-09-04T14:47:53.144Z,2.45
2022-09-04T14:50:29.639Z,2.77
2022-09-04T14:53:04.322Z,2.90
2022-09-04T14:55:41.835Z,2.80
2022-09-04T14:58:19.847Z,1.40
2022-09-04T15:01:00.925Z,2.58
2022-09-04T15:03:39.694Z,2.70
2022-09-04T15:06:15.742Z,2.55
2022-09-04T15:08:49.954Z,2.88
2022-09-04T15:11:31.126Z,2.80
2022-09-04T15:14:18.763Z,2.63
2022-09-04T15:16:55.114Z,2.13
2022-09-04T15:19:38.848Z,1.55
2022-09-04T15:22:17.506Z,2.50
2022-09-04T15:24:57.719Z,4.45
2022-09-04T15:27:40.083Z,2.38
2022-09-04T15:30:20.478Z,2.92
2022-09-04T15:33:06.778Z,2.40
2022-09-04T15:35:40.255Z,2.75
2022-09-04T15:38:19.950Z,2.22
2022-09-04T15:41:17.556Z,2.67
2022-09-04T15:43:53.540Z,2.35
2022-09-04T15:46:40.685Z,2.17
2022-09-04T15:49:25.749Z,5.28
2022-09-04T15:52:09.739Z,2.28
2022-09-04T15:55:00.492Z,1.10
2022-09-04T15:57:48.613Z,1.33
2022-09-04T16:00:23.147Z,2.05
2022-09-04T16:03:08.276Z,2.42
2022-09-04T16:05:45.238Z,2.42
2022-09-04T16:08:23.909Z,2.15
2022-09-04T16:11:01.667Z,3.28
2022-09-04T16:13:43.438Z,1.63
2022-09-04T16:16:22.047Z,2.13
2022-09-04T16:19:06.787Z,2.30
2022-09-04T16:21:49.718Z,1.48
2022-09-04T16:24:29.413Z,1.52
2022-09-04T16:27:06.984Z,2.42
2022-09-04T16:29:45.568Z,2.47
2022-09-04T16:32:21.480Z,3.10
2022-09-04T16:35:00.575Z,1.75
2022-09-04T16:37:37.773Z,2.95
2022-09-04T16:40:26.157Z,2.05
2022-09-04T16:43:08.931Z,2.10
2022-09-04T16:45:49.398Z,4.55
2022-09-04T16:48:33.821Z,3.63
2022-09-04T16:51:39.351Z,2.83
2022-09-04T16:54:20.858Z,2.47
2022-09-04T16:57:12.955Z,4.45
2022-09-04T16:59:49.383Z,2.10
2022-09-04T17:02:29.397Z,2.40
2022-09-04T17:05:23.058Z,2.22
2022-09-04T17:08:10.582Z,2.85
2022-09-04T17:10:48.204Z,2.55
2022-09-04T17:13:27.811Z,2.05
2022-09-04T17:16:06.895Z,2.83
2022-09-04T17:18:46.341Z,3.70
2022-09-04T17:29:11.314Z,2.60
2022-09-04T17:30:32.022Z,2.30
2022-09-04T17:37:31.583Z,2.80
2022-09-04T17:40:39.388Z,5.28
2022-09-04T17:42:09.812Z,2.88
2022-09-04T17:44:49.834Z,1.88
2022-09-04T17:47:31.480Z,3.60
2022-09-04T17:50:12.223Z,4.70
2022-09-04T17:52:59.261Z,4.25
2022-09-04T17:55:39.088Z,2.65
2022-09-04T17:58:31.274Z,2.75
2022-09-04T18:01:14.589Z,2.75
2022-09-04T18:04:21.194Z,2.70
2022-09-04T18:07:01.216Z,2.53
2022-09-04T18:10:06.993Z,3.08
2022-09-04T18:12:44.813Z,3.45
2022-09-04T18:15:33.053Z,2.88
2022-09-04T18:18:12.207Z,3.15
2022-09-04T18:20:51.724Z,3.08
2022-09-04T18:23:52.419Z,2.45
2022-09-04T18:26:40.501Z,3.83
2022-09-04T18:30:42.859Z,3.70
2022-09-04T18:37:13.098Z,2.78
2022-09-04T18:37:20.789Z,3.45
2022-09-04T18:38:45.488Z,3.53
2022-09-04T18:46:03.370Z,3.45
2022-09-04T18:50:23.003Z,2.25
2022-09-04T18:50:40.367Z,1.98
2022-09-04T18:51:06.913Z,4.45
2022-09-04T18:53:24.704Z,4.43
2022-09-04T18:56:01.533Z,2.78
2022-09-04T18:58:44.806Z,3.70
2022-09-04T19:01:27.325Z,5.05
2022-09-04T19:04:40.784Z,3.50
2022-09-04T19:07:26.595Z,5.60
2022-09-04T19:10:10.807Z,4.07
2022-09-04T19:12:55.555Z,2.60
2022-09-04T19:15:36.371Z,2.78
2022-09-04T19:18:22.653Z,4.35
2022-09-04T19:21:29.335Z,2.58
2022-09-04T19:24:13.835Z,4.75
2022-09-04T19:27:04.407Z,3.97
2022-09-04T19:30:18.037Z,5.22
2022-09-04T19:33:04.295Z,4.05
2022-09-04T19:35:45.709Z,5.75
2022-09-04T19:45:55.599Z,5.53
2022-09-04T19:46:00.059Z,3.65
2022-09-04T19:46:05.052Z,3.13
2022-09-04T19:47:36.485Z,5.28
2022-09-04T19:53:17.661Z,5.10
2022-09-04T19:53:36.584Z,4.18
2022-09-04T19:56:25.217Z,4.05
2022-09-04T19:59:05.073Z,4.88
2022-09-04T20:01:47.330Z,3.05
2022-09-04T20:04:30.698Z,3.38
2022-09-04T20:07:09.059Z,4.35
2022-09-04T20:09:45.991Z,4.82
2022-09-04T20:12:25.275Z,4.28
2022-09-04T20:15:10.926Z,4.78
2022-09-04T20:18:04.555Z,3.25
2022-09-04T20:20:45.843Z,3.05
2022-09-04T20:23:34.758Z,4.47
2022-09-04T20:26:20.531Z,2.92
2022-09-04T20:29:04.399Z,4.30
2022-09-04T20:31:48.744Z,2.75
2022-09-04T20:34:31.391Z,3.45
2022-09-04T20:37:26.237Z,4.18
2022-09-04T20:40:16.890Z,3.92
2022-09-04T20:43:05.667Z,3.20
2022-09-04T20:50:36.043Z,3.70
2022-09-04T20:52:54.740Z,2.75
2022-09-04T20:53:04.598Z,3.65
2022-09-04T20:55:09.739Z,2.25
2022-09-04T21:03:06.759Z,2.72
2022-09-04T21:03:19.489Z,3.00
2022-09-04T21:04:23.782Z,4.82
2022-09-04T21:07:26.228Z,3.35
2022-09-04T21:10:10.315Z,2.67
2022-09-04T21:12:48.951Z,3.63
2022-09-04T21:15:36.255Z,3.78
2022-09-04T21:18:28.723Z,1.83
2022-09-04T21:21:23.548Z,2.85
2022-09-04T21:24:18.975Z,2.70
2022-09-04T21:27:12.986Z,3.40
2022-09-04T21:30:02.046Z,4.10
2022-09-04T21:33:28.062Z,3.13
2022-09-04T21:36:25.430Z,4.10
2022-09-04T21:39:26.820Z,3.00
2022-09-04T21:42:19.453Z,3.10
2022-09-04T21:45:18.507Z,3.75
2022-09-04T21:48:17.828Z,2.13
2022-09-04T21:50:58.744Z,4.10
2022-09-04T21:54:38.105Z,3.05
2022-09-04T22:02:29.034Z,3.08
2022-09-04T22:02:35.102Z,5.45
2022-09-04T22:04:02.659Z,2.65
2022-09-04T22:07:59.698Z,3.35
2022-09-04T22:13:31.986Z,3.92
2022-09-04T22:13:38.285Z,4.88
2022-09-04T22:16:30.851Z,3.65
2022-09-04T22:19:41.777Z,3.75
2022-09-04T22:22:41.340Z,5.13
2022-09-04T22:28:44.436Z,3.92
2022-09-04T22:31:57.144Z,3.05
2022-09-04T22:35:19.347Z,4.15
2022-09-04T22:38:42.247Z,2.95
2022-09-04T22:41:49.900Z,4.85
2022-09-04T22:44:38.512Z,4.57
2022-09-04T22:47:31.978Z,3.28
2022-09-04T22:50:51.821Z,2.95
2022-09-04T22:54:00.699Z,4.60
2022-09-04T22:56:47.739Z,2.53
2022-09-04T22:59:44.434Z,3.47
2022-09-04T23:03:09.882Z,4.78
2022-09-04T23:06:32.479Z,4.20
2022-09-04T23:13:47.862Z,3.38
2022-09-04T23:13:56.569Z,4.78
2022-09-04T23:15:47.417Z,3.13
2022-09-04T23:22:02.536Z,4.68
2022-09-04T23:26:41.908Z,2.58
2022-09-04T23:26:44.478Z,3.28
2022-09-04T23:28:27.702Z,3.85
2022-09-04T23:31:27.292Z,2.83
2022-09-04T23:34:21.096Z,3.97
2022-09-04T23:37:13.962Z,3.72
2022-09-04T23:40:18.844Z,3.45
2022-09-04T23:43:22.450Z,3.60
2022-09-04T23:46:14.421Z,3.85
2022-09-04T23:49:06.525Z,4.18
2022-09-04T23:51:48.606Z,4.53
2022-09-04T23:54:55.433Z,4.32
2022-09-04T23:57:35.223Z,4.63
